Star Flyer — 9HA2512 — position and weather

sailwx.info

Track history (hours):
 
Tides and Currents Weather Stations Pressure Air Temp Water Temp Dewpoint Dewpoint Depression Visibility Wind Speed Wind Dir Waves Ship Positions

Star Flyer

Last reported at 2019-Feb-16 03:55 UTC. Time now 2019-Feb-16 04:05 UTC.
Position N 17°48' W 062°57'.

Length 112 m; draft 5.7 m.

Type: Ship. MMSI: 248785000.

Date/timePositionNaut miles runAvg speedWind from/ knotsBaromVisibWave heightAir tempDewpointWater temp
2019-Feb-16 03:55N 17°48' W 062°57'  
2019-Feb-10 13:16N 17°12' W 062°45'2 4.6
2019-Feb-10 12:51N 17°13' W 062°46'39 4.5
2019-Feb-10 04:03N 17°50' W 062°58'0 6.0
2019-Feb-10 03:59N 17°51' W 062°59'3 6.3
2019-Feb-10 03:29N 17°54' W 062°59'3 6.7
2019-Feb-10 03:00N 17°57' W 063°01'3 5.7
2019-Feb-10 02:31N 17°59' W 063°02'2 0.4
2019-Feb-09 22:23N 18°01' W 063°03'0 0.0
2019-Feb-09 20:23N 18°01' W 063°03'0 0.0
2019-Feb-09 17:23N 18°01' W 063°03'0 0.0
2019-Feb-09 09:35N 18°00' W 063°03'0 4.8
2019-Feb-09 09:29N 18°00' W 063°03'3 5.3
2019-Feb-09 09:00N 17°58' W 063°05'1 2.1
2019-Feb-09 08:30N 17°57' W 063°05'1 2.1
2019-Feb-09 07:56N 17°56' W 063°04'1 2.0
2019-Feb-09 07:29N 17°56' W 063°03'2 3.6
2019-Feb-09 06:56N 17°54' W 063°02'2 4.3
2019-Feb-09 06:30N 17°53' W 063°01'2 3.7
2019-Feb-09 06:00N 17°52' W 062°59'6 3.8
2019-Feb-09 04:32N 17°48' W 062°55'0 3.5
2019-Feb-09 04:24N 17°47' W 062°55'2 1.8
2019-Feb-09 03:17N 17°47' W 062°53'3 0.2
2019-Feb-08 12:29N 17°45' W 062°55'18 2.8
2019-Feb-08 06:02N 17°27' W 062°53'3 5.9
2019-Feb-08 05:32N 17°24' W 062°53'9 2.1
2019-Feb-08 01:27N 17°17' W 062°48'1 2.1
2019-Feb-08 00:59N 17°17' W 062°47'1 0.1
2019-Feb-07 11:38N 17°17' W 062°46'11 7.6
2019-Feb-07 10:10N 17°23' W 062°56'22 8.2
2019-Feb-07 07:33N 17°35' W 063°14'0 7.9
2019-Feb-07 07:30N 17°35' W 063°15'5 8.7
2019-Feb-07 06:58N 17°38' W 063°18'5 8.9
2019-Feb-07 06:25N 17°42' W 063°22'11 8.6
2019-Feb-07 05:06N 17°48' W 063°32'70 4.8
2019-Feb-06 14:32N 18°22' W 064°37'0 7.9
2019-Feb-06 14:30N 18°22' W 064°36'2 4.5
2019-Feb-06 14:00N 18°23' W 064°34'2 4.4
2019-Feb-06 13:30N 18°24' W 064°32'2 4.7
2019-Feb-06 13:00N 18°25' W 064°30'4 4.8
2019-Feb-06 12:09N 18°28' W 064°27'1 3.4
2019-Feb-06 11:45N 18°29' W 064°26'11 4.9
2019-Feb-06 09:37N 18°34' W 064°36'1 7.8
2019-Feb-06 09:30N 18°34' W 064°37'2 4.1
2019-Feb-06 09:00N 18°33' W 064°39'2 1.8
2019-Feb-06 08:03N 18°32' W 064°39'0 1.6
2019-Feb-06 08:00N 18°32' W 064°39'1 1.2
2019-Feb-06 07:30N 18°31' W 064°39'1 1.1
2019-Feb-06 06:42N 18°30' W 064°39'0 1.0
2019-Feb-06 06:30N 18°30' W 064°39'0 0.9
2019-Feb-06 06:00N 18°30' W 064°39'0 0.9
2019-Feb-06 05:30N 18°29' W 064°39'1 2.2
2019-Feb-06 05:00N 18°28' W 064°39'4 7.7
2019-Feb-06 04:30N 18°25' W 064°42'2 4.1
2019-Feb-06 04:00N 18°23' W 064°43'  
Track history (hours):
 
Tides and Currents Weather Stations Pressure Air Temp Water Temp Dewpoint Dewpoint Depression Visibility Wind Speed Wind Dir Waves Ship Positions

Star Flyer

Last reported at 2019-Feb-16 03:55 UTC. Time now 2019-Feb-16 04:05 UTC.
Position N 17°48' W 062°57'.

Length 112 m; draft 5.7 m.

Type: Ship. MMSI: 248785000.

Date/timePositionNaut miles runAvg speedWind from/ knotsBaromVisibWave heightAir tempDewpointWater temp
2019-Feb-16 03:55N 17°48' W 062°57'  
2019-Feb-10 13:16N 17°12' W 062°45'2 4.6
2019-Feb-10 12:51N 17°13' W 062°46'39 4.5
2019-Feb-10 04:03N 17°50' W 062°58'0 6.0
2019-Feb-10 03:59N 17°51' W 062°59'3 6.3
2019-Feb-10 03:29N 17°54' W 062°59'3 6.7
2019-Feb-10 03:00N 17°57' W 063°01'3 5.7
2019-Feb-10 02:31N 17°59' W 063°02'2 0.4
2019-Feb-09 22:23N 18°01' W 063°03'0 0.0
2019-Feb-09 20:23N 18°01' W 063°03'0 0.0
2019-Feb-09 17:23N 18°01' W 063°03'0 0.0
2019-Feb-09 09:35N 18°00' W 063°03'0 4.8
2019-Feb-09 09:29N 18°00' W 063°03'3 5.3
2019-Feb-09 09:00N 17°58' W 063°05'1 2.1
2019-Feb-09 08:30N 17°57' W 063°05'1 2.1
2019-Feb-09 07:56N 17°56' W 063°04'1 2.0
2019-Feb-09 07:29N 17°56' W 063°03'2 3.6
2019-Feb-09 06:56N 17°54' W 063°02'2 4.3
2019-Feb-09 06:30N 17°53' W 063°01'2 3.7
2019-Feb-09 06:00N 17°52' W 062°59'6 3.8
2019-Feb-09 04:32N 17°48' W 062°55'0 3.5
2019-Feb-09 04:24N 17°47' W 062°55'2 1.8
2019-Feb-09 03:17N 17°47' W 062°53'3 0.2
2019-Feb-08 12:29N 17°45' W 062°55'18 2.8
2019-Feb-08 06:02N 17°27' W 062°53'3 5.9
2019-Feb-08 05:32N 17°24' W 062°53'9 2.1
2019-Feb-08 01:27N 17°17' W 062°48'1 2.1
2019-Feb-08 00:59N 17°17' W 062°47'1 0.1
2019-Feb-07 11:38N 17°17' W 062°46'11 7.6
2019-Feb-07 10:10N 17°23' W 062°56'22 8.2
2019-Feb-07 07:33N 17°35' W 063°14'0 7.9
2019-Feb-07 07:30N 17°35' W 063°15'5 8.7
2019-Feb-07 06:58N 17°38' W 063°18'5 8.9
2019-Feb-07 06:25N 17°42' W 063°22'11 8.6
2019-Feb-07 05:06N 17°48' W 063°32'70 4.8
2019-Feb-06 14:32N 18°22' W 064°37'0 7.9
2019-Feb-06 14:30N 18°22' W 064°36'2 4.5
2019-Feb-06 14:00N 18°23' W 064°34'2 4.4
2019-Feb-06 13:30N 18°24' W 064°32'2 4.7
2019-Feb-06 13:00N 18°25' W 064°30'4 4.8
2019-Feb-06 12:09N 18°28' W 064°27'1 3.4
2019-Feb-06 11:45N 18°29' W 064°26'11 4.9
2019-Feb-06 09:37N 18°34' W 064°36'1 7.8
2019-Feb-06 09:30N 18°34' W 064°37'2 4.1
2019-Feb-06 09:00N 18°33' W 064°39'2 1.8
2019-Feb-06 08:03N 18°32' W 064°39'0 1.6
2019-Feb-06 08:00N 18°32' W 064°39'1 1.2
2019-Feb-06 07:30N 18°31' W 064°39'1 1.1
2019-Feb-06 06:42N 18°30' W 064°39'0 1.0
2019-Feb-06 06:30N 18°30' W 064°39'0 0.9
2019-Feb-06 06:00N 18°30' W 064°39'0 0.9
2019-Feb-06 05:30N 18°29' W 064°39'1 2.2
2019-Feb-06 05:00N 18°28' W 064°39'4 7.7
2019-Feb-06 04:30N 18°25' W 064°42'2 4.1
2019-Feb-06 04:00N 18°23' W 064°43'  

Dump ship's entire track history